首页
METAR-TAF:

METAR-TAF

机场 :

康斯坦察, 罗马尼亚

纬度: 44-20N, 经度: 028-26E, 海拔: 97米

当前天气观测

该预报发布于31分钟前的20:30 UTC
风速7节,风向南转南东
温度 15°C
湿度 88%
气压 1014 hPa
能见度10公里或以上
1500米以下无云,无积雨云

METAR: LRCK 232030Z 15007KT CAVOK 15/13 Q1014 NOSIG

时间: 00:01 (21:01 UTC)

预报

该预报发布于4小时和1分钟前的17:00 UTC
预报有效从23日的 18点(UTC)到 24日的 18点(UTC)
风速8节,风向南转南东
能见度10公里或以上
1500米以下无云,无积雨云
几率 30% :
短暂存在
从 24日的 08点(UTC)到 24日的 15点(UTC)
能見度: 5000
散云层高于1000英尺
散云层高于3500英尺, 积雨云.
多云层高于4500英尺
小雨, 小阵雨
成为
从 24日的 15点(UTC)到 24日的 17点(UTC)
风速10节,风向东北

TAF: LRCK 231700Z 2318/2418 15008KT CAVOK PROB30 TEMPO 2408/2415 5000 -RA -SHRA SCT010 SCT035CB BKN045 BECMG 2415/2417 05010KT

超过4000个机场的气象观测和天气预报(METAR&TAF报告)。

可查询的气象台以黄色和红色小点在地图上表示。

将鼠标移到小点上方,可查看气象台名称。

然后点击查看天气观测和预报。

如需切换地图:点击带黑十字的绿色按钮放大地图;点击带横线的绿色按钮缩小地图;或者点击绿色箭头查看邻近地区的地图。


METAR-TAF: